createdAt,value
2018-08-22T00:00:11.068Z,6.13
2018-08-22T00:02:40.035Z,3.63
2018-08-22T00:05:09.004Z,2.70
2018-08-22T00:07:37.938Z,4.00
2018-08-22T00:10:06.961Z,2.50
2018-08-22T00:12:36.046Z,4.60
2018-08-22T00:15:05.302Z,3.53
2018-08-22T00:17:34.236Z,3.73
2018-08-22T00:20:03.243Z,2.50
2018-08-22T00:22:32.373Z,3.70
2018-08-22T00:25:01.404Z,4.27
2018-08-22T00:27:30.395Z,1.87
2018-08-22T00:29:59.357Z,5.83
2018-08-22T00:32:28.400Z,4.13
2018-08-22T00:34:57.371Z,2.43
2018-08-22T00:37:26.473Z,3.57
2018-08-22T00:39:55.423Z,3.83
2018-08-22T00:42:24.369Z,4.73
2018-08-22T00:44:53.318Z,3.20
2018-08-22T00:47:22.280Z,2.87
2018-08-22T00:49:51.222Z,4.70
2018-08-22T00:52:20.254Z,2.40
2018-08-22T00:54:49.320Z,1.73
2018-08-22T00:57:18.248Z,4.97
2018-08-22T00:59:47.378Z,10.07
2018-08-22T01:02:16.357Z,3.23
2018-08-22T01:04:52.084Z,2.47
2018-08-22T01:07:21.079Z,2.17
2018-08-22T01:09:50.094Z,2.83
2018-08-22T01:12:19.121Z,6.53
2018-08-22T01:14:48.209Z,3.40
2018-08-22T01:17:17.138Z,4.07
2018-08-22T01:19:46.106Z,1.97
2018-08-22T01:22:15.190Z,3.97
2018-08-22T01:24:44.192Z,4.63
2018-08-22T01:27:18.452Z,2.43
2018-08-22T01:29:47.423Z,2.93
2018-08-22T01:32:16.360Z,4.73
2018-08-22T01:34:45.322Z,2.40
2018-08-22T01:37:14.264Z,2.73
2018-08-22T01:39:43.332Z,3.83
2018-08-22T01:42:12.287Z,3.20
2018-08-22T01:44:41.272Z,3.43
2018-08-22T01:47:10.700Z,3.13
2018-08-22T01:49:39.754Z,3.73
2018-08-22T01:52:08.721Z,2.83
2018-08-22T01:54:37.634Z,8.83
2018-08-22T01:57:06.622Z,5.57
2018-08-22T01:59:35.613Z,3.27
2018-08-22T02:02:04.574Z,3.07
2018-08-22T02:04:33.588Z,5.10
2018-08-22T02:07:02.583Z,3.90
2018-08-22T02:09:31.568Z,4.80
2018-08-22T02:12:00.642Z,4.50
2018-08-22T02:14:29.585Z,2.40
2018-08-22T02:16:58.546Z,5.93
2018-08-22T02:19:27.490Z,1.67
2018-08-22T02:21:56.446Z,3.13
2018-08-22T02:24:25.426Z,3.60
2018-08-22T02:26:54.364Z,4.47
2018-08-22T02:29:23.304Z,5.10
2018-08-22T02:31:52.272Z,2.10
2018-08-22T02:34:21.212Z,4.23
2018-08-22T02:36:54.127Z,4.03
2018-08-22T02:39:23.107Z,2.33
2018-08-22T02:41:52.192Z,4.67
2018-08-22T02:44:21.309Z,2.30
2018-08-22T02:46:50.308Z,3.03
2018-08-22T02:49:19.346Z,3.37
2018-08-22T02:51:48.299Z,4.93
2018-08-22T02:54:17.333Z,4.53
2018-08-22T02:56:46.367Z,6.73
2018-08-22T02:59:15.327Z,2.10
2018-08-22T03:01:44.287Z,7.73
2018-08-22T03:04:13.346Z,5.17
2018-08-22T03:06:42.311Z,3.03
2018-08-22T03:09:11.302Z,4.40
2018-08-22T03:11:40.260Z,3.57
2018-08-22T03:14:09.190Z,4.53
2018-08-22T03:16:38.161Z,3.63
2018-08-22T03:19:07.375Z,3.37
2018-08-22T03:21:36.463Z,3.33
2018-08-22T03:24:05.470Z,3.17
2018-08-22T03:26:34.493Z,5.13
2018-08-22T03:29:03.477Z,2.17
2018-08-22T03:31:32.659Z,3.30
2018-08-22T03:34:01.873Z,3.53
2018-08-22T03:36:30.805Z,4.13
2018-08-22T03:38:59.791Z,4.47
2018-08-22T03:41:28.827Z,3.30
2018-08-22T03:43:58.981Z,6.33
2018-08-22T03:46:27.950Z,5.27
2018-08-22T03:48:56.914Z,6.00
2018-08-22T03:51:25.931Z,5.70
2018-08-22T03:53:54.935Z,3.57
2018-08-22T03:56:23.883Z,4.47
2018-08-22T03:58:52.849Z,4.63
2018-08-22T04:01:21.914Z,3.43
2018-08-22T04:03:50.864Z,3.57
2018-08-22T04:06:19.965Z,2.50
2018-08-22T04:08:48.923Z,4.73
2018-08-22T04:11:17.872Z,3.10
2018-08-22T04:13:46.928Z,2.43
2018-08-22T04:16:15.937Z,5.27
2018-08-22T04:18:44.918Z,4.87
2018-08-22T04:21:14.045Z,3.80
2018-08-22T04:23:43.131Z,2.40
2018-08-22T04:26:12.087Z,4.33
2018-08-22T04:28:41.457Z,5.30
2018-08-22T04:31:10.511Z,6.33
2018-08-22T04:33:39.644Z,2.93
2018-08-22T04:36:08.666Z,2.77
2018-08-22T04:38:37.613Z,5.37
2018-08-22T04:41:06.721Z,3.87
2018-08-22T04:43:36.371Z,4.73
2018-08-22T04:46:05.343Z,5.67
2018-08-22T04:48:34.431Z,5.97
2018-08-22T04:51:03.629Z,3.40
2018-08-22T04:53:33.383Z,7.50
2018-08-22T04:56:02.442Z,9.40
2018-08-22T04:58:31.644Z,6.77
2018-08-22T05:01:00.596Z,3.13
2018-08-22T05:03:30.636Z,7.97
2018-08-22T05:05:59.822Z,6.27
2018-08-22T05:08:29.164Z,4.83
2018-08-22T05:10:58.098Z,5.13
2018-08-22T05:13:27.145Z,5.50
2018-08-22T05:15:56.281Z,3.67
2018-08-22T05:18:25.311Z,8.83
2018-08-22T05:20:55.212Z,5.27
2018-08-22T05:23:24.228Z,5.27
2018-08-22T05:25:53.387Z,6.13
2018-08-22T05:28:22.421Z,5.13
2018-08-22T05:30:51.788Z,9.40
2018-08-22T05:33:20.815Z,3.43
2018-08-22T05:35:49.811Z,6.30
2018-08-22T05:38:18.752Z,6.27
2018-08-22T05:40:47.844Z,4.63
2018-08-22T05:43:17.180Z,5.77
2018-08-22T05:45:46.204Z,9.30
2018-08-22T05:48:15.135Z,7.87
2018-08-22T05:50:44.134Z,9.60
2018-08-22T05:53:13.720Z,4.47
2018-08-22T05:55:42.685Z,7.30
2018-08-22T05:58:11.611Z,8.70
2018-08-22T06:00:40.608Z,4.17
2018-08-22T06:03:09.608Z,6.70
2018-08-22T06:05:38.624Z,5.20
2018-08-22T06:08:07.676Z,3.53
2018-08-22T06:10:36.645Z,8.40
2018-08-22T06:13:05.809Z,5.47
2018-08-22T06:15:34.779Z,7.57
2018-08-22T06:18:03.782Z,8.10
2018-08-22T06:20:32.809Z,5.03
2018-08-22T06:23:01.896Z,3.83
2018-08-22T06:25:31.268Z,8.63
2018-08-22T06:28:00.223Z,4.53
2018-08-22T06:30:29.144Z,9.70
2018-08-22T06:32:58.125Z,6.83
2018-08-22T06:35:27.056Z,7.53
2018-08-22T06:37:56.026Z,6.23
2018-08-22T06:40:25.041Z,4.57
2018-08-22T06:42:54.224Z,8.13
2018-08-22T06:45:23.163Z,5.20
2018-08-22T06:47:52.227Z,8.10
2018-08-22T06:50:21.444Z,9.07
2018-08-22T06:52:50.445Z,12.13
2018-08-22T06:55:19.439Z,5.50
2018-08-22T06:57:48.502Z,5.03
2018-08-22T07:00:17.499Z,7.50
2018-08-22T07:02:46.538Z,4.83
2018-08-22T07:05:15.516Z,7.23
2018-08-22T07:07:44.513Z,6.13
2018-08-22T07:10:13.587Z,4.97
2018-08-22T07:12:42.710Z,5.50
2018-08-22T07:15:11.913Z,9.30
2018-08-22T07:17:40.984Z,8.30
2018-08-22T07:20:10.104Z,6.93
2018-08-22T07:22:39.403Z,4.63
2018-08-22T07:25:08.443Z,7.08
2018-08-22T07:27:37.421Z,5.25
2018-08-22T07:30:06.606Z,7.28
2018-08-22T07:32:35.618Z,6.33
2018-08-22T07:35:04.845Z,6.85
2018-08-22T07:37:33.915Z,7.55
2018-08-22T07:40:02.890Z,11.97
2018-08-22T07:42:31.914Z,4.87
2018-08-22T07:45:02.006Z,8.73
2018-08-22T07:47:33.175Z,6.08
2018-08-22T07:50:02.110Z,12.35
2018-08-22T07:52:31.170Z,5.75
2018-08-22T07:55:00.192Z,6.17
2018-08-22T07:57:29.793Z,6.22
2018-08-22T07:59:58.878Z,4.05
2018-08-22T08:02:28.545Z,6.83
2018-08-22T08:04:57.730Z,6.67
2018-08-22T08:07:28.820Z,5.30
2018-08-22T08:09:58.535Z,7.15
2018-08-22T08:12:31.789Z,6.90
2018-08-22T08:15:05.102Z,6.62
2018-08-22T08:17:34.062Z,5.83
2018-08-22T08:20:03.059Z,7.47
2018-08-22T08:22:32.138Z,6.72
2018-08-22T08:25:01.870Z,5.20
2018-08-22T08:27:30.853Z,6.92
2018-08-22T08:29:59.906Z,6.85
2018-08-22T08:32:28.880Z,3.25
2018-08-22T08:34:57.832Z,3.45
2018-08-22T08:37:26.883Z,6.15
2018-08-22T08:39:55.840Z,8.45
2018-08-22T08:42:24.863Z,2.05
2018-08-22T08:44:53.892Z,3.10
2018-08-22T08:47:23.702Z,6.05
2018-08-22T08:49:52.715Z,3.42
2018-08-22T08:52:21.762Z,2.35
2018-08-22T08:54:52.291Z,4.83
2018-08-22T08:57:21.547Z,4.80
2018-08-22T08:59:50.412Z,3.65
2018-08-22T09:02:19.434Z,3.25
2018-08-22T09:04:48.427Z,3.35
2018-08-22T09:07:18.103Z,3.50
2018-08-22T09:09:47.077Z,3.17
2018-08-22T09:12:16.127Z,3.90
2018-08-22T09:14:45.078Z,2.37
2018-08-22T09:17:15.009Z,6.37
2018-08-22T09:19:43.949Z,4.22
2018-08-22T09:22:12.943Z,2.70
2018-08-22T09:24:42.022Z,2.45
2018-08-22T09:27:11.612Z,4.15
2018-08-22T09:29:41.189Z,1.85
2018-08-22T09:32:10.466Z,3.45
2018-08-22T09:34:39.544Z,1.52
2018-08-22T09:37:08.485Z,3.35
2018-08-22T09:39:37.663Z,3.50
2018-08-22T09:42:06.624Z,3.30
2018-08-22T09:44:35.775Z,2.35
2018-08-22T09:47:06.258Z,3.35
2018-08-22T09:49:35.231Z,3.42
2018-08-22T09:52:04.205Z,2.05
2018-08-22T09:54:34.646Z,1.65
2018-08-22T09:57:03.652Z,2.05
2018-08-22T09:59:32.602Z,1.72
2018-08-22T10:02:01.574Z,2.65
2018-08-22T10:04:30.653Z,5.97
2018-08-22T10:07:00.556Z,5.58
2018-08-22T10:09:29.508Z,1.80
2018-08-22T10:11:59.316Z,2.65
2018-08-22T10:14:28.273Z,3.45
2018-08-22T10:16:57.388Z,2.83
2018-08-22T10:19:26.346Z,2.15
2018-08-22T10:21:55.306Z,1.35
2018-08-22T10:24:24.255Z,1.75
2018-08-22T10:26:53.328Z,1.42
2018-08-22T10:29:22.313Z,5.47
2018-08-22T10:31:51.299Z,3.55
2018-08-22T10:34:20.326Z,4.00
2018-08-22T10:36:49.281Z,4.58
2018-08-22T10:39:18.327Z,3.17
2018-08-22T10:41:47.289Z,2.00
2018-08-22T10:44:16.282Z,2.62
2018-08-22T10:46:45.634Z,3.12
2018-08-22T10:49:15.650Z,1.27
2018-08-22T10:51:45.705Z,3.15
2018-08-22T10:54:14.787Z,3.65
2018-08-22T10:56:43.883Z,1.87
2018-08-22T10:59:12.926Z,3.45
2018-08-22T11:01:41.896Z,2.30
2018-08-22T11:04:10.860Z,2.42
2018-08-22T11:06:39.911Z,1.35
2018-08-22T11:09:09.996Z,2.52
2018-08-22T11:11:39.039Z,1.77
2018-08-22T11:14:08.334Z,2.33
2018-08-22T11:16:37.318Z,2.10
2018-08-22T11:19:06.372Z,3.10
2018-08-22T11:21:46.586Z,2.08
2018-08-22T11:24:26.803Z,3.70
2018-08-22T11:27:07.131Z,1.10
2018-08-22T11:29:47.479Z,2.30
2018-08-22T11:32:28.000Z,0.88
2018-08-22T11:34:55.863Z,1.52
2018-08-22T11:37:24.943Z,1.92
2018-08-22T11:39:53.974Z,4.60
2018-08-22T11:42:22.947Z,3.05
2018-08-22T11:44:52.051Z,1.72
2018-08-22T11:47:21.138Z,1.15
2018-08-22T11:49:50.517Z,3.55
2018-08-22T11:52:19.504Z,2.42
2018-08-22T11:54:48.476Z,1.55
2018-08-22T11:57:17.436Z,2.20
2018-08-22T11:59:46.357Z,2.00
2018-08-22T12:02:15.410Z,1.87
2018-08-22T12:04:44.371Z,4.28
2018-08-22T12:07:13.403Z,1.98
2018-08-22T12:09:42.385Z,1.77
2018-08-22T12:12:11.386Z,1.25
2018-08-22T12:14:40.316Z,2.20
2018-08-22T12:17:09.276Z,1.72
2018-08-22T12:19:38.250Z,1.90
2018-08-22T12:22:07.422Z,4.28
2018-08-22T12:24:36.621Z,3.33
2018-08-22T12:27:05.574Z,3.40
2018-08-22T12:29:34.522Z,0.90
2018-08-22T12:32:03.445Z,3.02
2018-08-22T12:34:32.460Z,4.25
2018-08-22T12:37:01.394Z,1.02
2018-08-22T12:39:30.313Z,0.72
2018-08-22T12:41:59.284Z,1.65
2018-08-22T12:44:29.095Z,2.47
2018-08-22T12:46:58.210Z,3.95
2018-08-22T12:49:27.291Z,3.60
2018-08-22T12:51:56.287Z,4.15
2018-08-22T12:54:25.267Z,1.65
2018-08-22T12:56:54.242Z,1.02
2018-08-22T12:59:23.271Z,1.62
2018-08-22T13:01:52.190Z,0.57
2018-08-22T13:04:21.295Z,1.20
2018-08-22T13:06:50.393Z,3.33
2018-08-22T13:09:19.380Z,1.35
2018-08-22T13:11:48.491Z,2.17
2018-08-22T13:14:17.546Z,1.12
2018-08-22T13:16:47.481Z,1.37
2018-08-22T13:19:16.489Z,1.30
2018-08-22T13:21:45.365Z,1.95
2018-08-22T13:24:14.981Z,1.95
2018-08-22T13:26:43.892Z,1.25
2018-08-22T13:29:12.820Z,1.30
2018-08-22T13:31:42.702Z,2.80
2018-08-22T13:34:11.771Z,3.15
2018-08-22T13:36:41.072Z,1.82
2018-08-22T13:39:10.970Z,1.22
2018-08-22T13:41:40.074Z,1.00
2018-08-22T13:44:09.047Z,2.83
2018-08-22T13:46:38.163Z,4.08
2018-08-22T13:49:07.200Z,2.47
2018-08-22T13:51:36.189Z,3.22
2018-08-22T13:54:05.266Z,3.20
2018-08-22T13:56:34.382Z,2.15
2018-08-22T13:59:03.313Z,2.37
2018-08-22T14:01:32.569Z,3.42
2018-08-22T14:04:01.914Z,2.22
2018-08-22T14:06:31.514Z,1.20
2018-08-22T14:09:00.606Z,3.52
2018-08-22T14:11:29.722Z,6.25
2018-08-22T14:13:58.709Z,2.87
2018-08-22T14:16:27.647Z,3.58
2018-08-22T14:18:56.626Z,1.05
2018-08-22T14:21:25.660Z,4.35
2018-08-22T14:23:54.623Z,1.32
2018-08-22T14:26:24.187Z,0.93
2018-08-22T14:28:53.250Z,0.80
2018-08-22T14:31:22.391Z,2.98
2018-08-22T14:33:51.696Z,1.37
2018-08-22T14:36:20.759Z,0.78
2018-08-22T14:38:50.755Z,2.20
2018-08-22T14:41:19.729Z,1.00
2018-08-22T14:43:48.797Z,1.57
2018-08-22T14:46:17.903Z,1.37
2018-08-22T14:48:46.880Z,3.00
2018-08-22T14:51:16.057Z,1.22
2018-08-22T14:53:45.028Z,2.05
2018-08-22T14:56:14.101Z,2.45
2018-08-22T14:58:43.127Z,1.60
2018-08-22T15:01:13.110Z,1.45
2018-08-22T15:03:42.199Z,3.55
2018-08-22T15:06:11.213Z,1.45
2018-08-22T15:08:42.644Z,3.90
2018-08-22T15:11:11.627Z,1.60
2018-08-22T15:13:40.616Z,1.62
2018-08-22T15:16:09.578Z,1.00
2018-08-22T15:18:38.561Z,5.37
2018-08-22T15:21:07.883Z,0.98
2018-08-22T15:23:36.947Z,0.85
2018-08-22T15:26:06.068Z,3.52
2018-08-22T15:28:35.106Z,1.10
2018-08-22T15:31:04.119Z,1.85
2018-08-22T15:33:34.015Z,2.17
2018-08-22T15:36:03.474Z,4.22
2018-08-22T15:38:32.659Z,1.62
2018-08-22T15:41:01.856Z,1.52
2018-08-22T15:43:31.909Z,0.80
2018-08-22T15:46:01.847Z,1.82
2018-08-22T15:48:31.089Z,1.17
2018-08-22T15:51:00.804Z,3.37
2018-08-22T15:53:30.785Z,1.23
2018-08-22T15:55:59.861Z,1.60
2018-08-22T15:58:30.494Z,1.43
2018-08-22T16:01:00.244Z,1.50
2018-08-22T16:03:29.548Z,1.53
2018-08-22T16:05:59.031Z,2.67
2018-08-22T16:08:29.284Z,1.87
2018-08-22T16:10:59.233Z,3.33
2018-08-22T16:13:30.039Z,1.63
2018-08-22T16:16:02.363Z,3.37
2018-08-22T16:18:33.596Z,3.67
2018-08-22T16:21:04.735Z,2.70
2018-08-22T16:23:35.241Z,1.40
2018-08-22T16:26:05.429Z,3.97
2018-08-22T16:28:48.741Z,1.60
2018-08-22T16:31:18.812Z,1.93
2018-08-22T16:33:47.985Z,2.53
2018-08-22T16:36:21.916Z,2.87
2018-08-22T16:38:50.935Z,4.03
2018-08-22T16:41:20.049Z,2.17
2018-08-22T16:43:50.115Z,2.17
2018-08-22T16:46:19.514Z,3.57
2018-08-22T16:48:51.155Z,3.43
2018-08-22T16:51:21.910Z,5.77
2018-08-22T16:53:59.108Z,5.33
2018-08-22T16:56:28.984Z,3.63
2018-08-22T16:59:18.346Z,2.03
2018-08-22T17:01:49.312Z,2.87
2018-08-22T17:04:18.380Z,2.13
2018-08-22T17:06:47.929Z,3.03
2018-08-22T17:09:16.926Z,2.23
2018-08-22T17:11:46.009Z,2.30
2018-08-22T17:14:15.077Z,2.17
2018-08-22T17:16:44.184Z,2.70
2018-08-22T17:19:14.138Z,2.50
2018-08-22T17:21:43.211Z,2.60
2018-08-22T17:24:13.838Z,6.40
2018-08-22T17:26:44.067Z,2.60
2018-08-22T17:29:13.204Z,2.63
2018-08-22T17:31:42.920Z,4.03
2018-08-22T17:34:13.133Z,2.60
2018-08-22T17:36:42.501Z,2.53
2018-08-22T17:39:12.460Z,2.70
2018-08-22T17:41:42.047Z,2.30
2018-08-22T17:44:13.327Z,3.43
2018-08-22T17:46:44.681Z,5.33
2018-08-22T17:49:15.089Z,3.57
2018-08-22T17:51:57.605Z,2.40
2018-08-22T17:54:27.171Z,3.07
2018-08-22T17:57:09.677Z,3.63
2018-08-22T17:59:39.323Z,2.50
2018-08-22T18:02:08.836Z,3.60
2018-08-22T18:04:49.416Z,3.87
2018-08-22T18:07:18.682Z,2.90
2018-08-22T18:09:49.057Z,2.50
2018-08-22T18:12:19.535Z,6.80
2018-08-22T18:14:48.584Z,3.43
2018-08-22T18:17:20.056Z,3.53
2018-08-22T18:19:49.782Z,7.17
2018-08-22T18:22:18.762Z,3.13
2018-08-22T18:24:53.528Z,4.80
2018-08-22T18:27:22.802Z,4.83
2018-08-22T18:29:51.872Z,2.33
2018-08-22T18:32:21.121Z,5.10
2018-08-22T18:35:11.446Z,6.13
2018-08-22T18:37:41.102Z,7.93
2018-08-22T18:40:18.160Z,3.77
2018-08-22T18:42:52.480Z,7.17
2018-08-22T18:45:22.052Z,16.37
2018-08-22T18:47:51.325Z,25.87
2018-08-22T18:50:20.916Z,20.77
2018-08-22T18:52:53.852Z,23.03
2018-08-22T18:55:25.297Z,15.03
2018-08-22T18:57:54.831Z,9.83
2018-08-22T19:00:23.999Z,4.97
2018-08-22T19:02:55.454Z,4.63
2018-08-22T19:05:31.074Z,5.30
2018-08-22T19:08:04.547Z,3.47
2018-08-22T19:10:35.007Z,2.30
2018-08-22T19:13:09.409Z,1.70
2018-08-22T19:15:38.811Z,3.87
2018-08-22T19:18:10.088Z,3.67
2018-08-22T19:20:39.299Z,0.80
2018-08-22T19:23:08.268Z,2.23
2018-08-22T19:25:37.342Z,2.57
2018-08-22T19:28:06.981Z,1.40
2018-08-22T19:30:37.961Z,0.70
2018-08-22T19:33:10.265Z,2.60
2018-08-22T19:35:39.336Z,0.90
2018-08-22T19:38:08.597Z,2.43
2018-08-22T19:40:37.962Z,3.33
2018-08-22T19:43:08.071Z,1.63
2018-08-22T19:45:37.819Z,3.27
2018-08-22T19:48:07.434Z,4.33
2018-08-22T19:50:36.763Z,3.00
2018-08-22T19:53:06.402Z,3.87
2018-08-22T19:55:36.439Z,1.13
2018-08-22T19:58:06.129Z,2.90
2018-08-22T20:00:35.342Z,0.83
2018-08-22T20:03:04.350Z,3.63
2018-08-22T20:06:08.462Z,2.83
2018-08-22T20:08:38.741Z,3.50
2018-08-22T20:11:08.199Z,3.43
2018-08-22T20:13:49.678Z,2.03
2018-08-22T20:16:21.516Z,2.77
2018-08-22T20:18:53.013Z,2.40
2018-08-22T20:21:40.003Z,5.43
2018-08-22T20:26:33.046Z,4.30
2018-08-22T20:29:03.422Z,1.23
2018-08-22T20:31:33.881Z,2.60
2018-08-22T20:34:19.469Z,5.47
2018-08-22T20:39:45.557Z,2.20
2018-08-22T20:42:14.413Z,5.57
2018-08-22T20:44:43.529Z,4.23
2018-08-22T20:47:13.034Z,1.73
2018-08-22T20:49:42.039Z,3.27
2018-08-22T20:52:11.059Z,2.53
2018-08-22T20:54:40.122Z,1.97
2018-08-22T20:57:11.551Z,5.10
2018-08-22T20:59:40.778Z,1.83
2018-08-22T21:02:09.830Z,4.90
2018-08-22T21:04:38.857Z,2.57
2018-08-22T21:07:07.903Z,2.33
2018-08-22T21:09:36.888Z,2.23
2018-08-22T21:12:05.944Z,2.10
2018-08-22T21:14:34.964Z,2.37
2018-08-22T21:17:03.911Z,2.97
2018-08-22T21:19:32.876Z,5.73
2018-08-22T21:22:02.016Z,4.40
2018-08-22T21:24:31.060Z,2.07
2018-08-22T21:27:00.517Z,4.73
2018-08-22T21:29:29.448Z,3.87
2018-08-22T21:31:58.481Z,2.43
2018-08-22T21:34:27.506Z,3.43
2018-08-22T21:36:56.597Z,5.13
2018-08-22T21:39:26.936Z,5.17
2018-08-22T21:41:56.114Z,2.63
2018-08-22T21:44:25.441Z,7.30
2018-08-22T21:47:00.493Z,4.50
2018-08-22T21:49:29.872Z,2.30
2018-08-22T21:52:00.421Z,1.83
2018-08-22T21:54:29.720Z,3.90
2018-08-22T21:56:59.291Z,1.60
2018-08-22T21:59:29.257Z,3.07
2018-08-22T22:02:03.556Z,1.40
2018-08-22T22:04:32.528Z,4.30
2018-08-22T22:07:01.781Z,1.43
2018-08-22T22:09:30.865Z,2.67
2018-08-22T22:12:01.160Z,3.67
2018-08-22T22:14:32.158Z,4.43
2018-08-22T22:17:02.340Z,7.60
2018-08-22T22:19:34.455Z,1.80
2018-08-22T22:22:04.128Z,2.03
2018-08-22T22:24:34.207Z,2.63
2018-08-22T22:27:03.761Z,3.27
2018-08-22T22:29:33.702Z,3.53
2018-08-22T22:32:02.696Z,1.70
2018-08-22T22:34:31.661Z,1.20
2018-08-22T22:37:01.248Z,2.90
2018-08-22T22:39:37.850Z,9.07
2018-08-22T22:42:13.585Z,2.40
2018-08-22T22:44:47.902Z,2.57
2018-08-22T22:47:22.323Z,2.33
2018-08-22T22:49:51.847Z,2.53
2018-08-22T22:52:28.765Z,1.73
2018-08-22T22:54:59.096Z,1.00
2018-08-22T22:57:29.581Z,2.83
2018-08-22T22:59:59.463Z,1.03
2018-08-22T23:02:28.817Z,1.47
2018-08-22T23:04:58.603Z,2.53
2018-08-22T23:07:32.101Z,2.40
2018-08-22T23:10:02.366Z,3.27
2018-08-22T23:12:47.741Z,3.03
2018-08-22T23:15:19.710Z,5.53
2018-08-22T23:17:49.508Z,2.40
2018-08-22T23:20:38.261Z,4.03
2018-08-22T23:23:41.203Z,4.50
2018-08-22T23:26:15.934Z,3.27
2018-08-22T23:28:45.320Z,2.20
2018-08-22T23:31:15.822Z,4.23
2018-08-22T23:33:44.812Z,1.73
2018-08-22T23:36:13.785Z,2.00
2018-08-22T23:38:42.783Z,3.87
2018-08-22T23:41:11.840Z,1.77
2018-08-22T23:43:46.153Z,1.60
2018-08-22T23:46:15.144Z,3.90
2018-08-22T23:48:44.166Z,2.40
2018-08-22T23:51:14.185Z,2.07
2018-08-22T23:53:48.512Z,1.67
2018-08-22T23:56:19.734Z,3.63
2018-08-22T23:58:49.456Z,1.47
